Silva, Missouri
Current Conditions -  °F | °C
As of 6:53 PM on Saturday 25 Oct 2014 (Local Time) from KPOF Reporting Station
Haze Haze  
Wind Chill: 71°   Ceiling: Unl
Heat Index: 71°   Visibility: 5mi
Dew Point: 64°   Wind: 0mph
Humidity: 78%   Direction: NA
Pressure: 30"   Gusts: NA
Location:  37.18°N, 90.46°W
Report Text: KPOF 252353Z AUTO 00000KT 5SM HZ CLR 22/18 A3000 RMK AO2 SLP156 T02170178 10283 20211 53004
Loading
Personal Weather Stations






























Interactive Weather Map New forecast layout! Learn more

10-Day Weather Forecast

Advertisements
Track Severe Weather on mobile